Aérodrome :
LOGIN :

S'inscrire | Disclaimer

   EN    FR    IT 

 










Légende :    VFR   VFR Marginal   IFR   IFR Intensif   IFR Très Intensif
Visi : 
Plafond : 
>= 8 km
>= 3000ft
5 à 8 km
1000 à 3000 ft
1500m à 5 km
500 à 1000 ft
800 à 1500m
200 à 500 ft
< 800m
< 200 ft
Symboles :   Orages  Brouillard  Fortes neiges  Fortes précipitations  Vent > 20 kt
SIGMETs :   Divers  Orages  Givrage  Turbulence  Onde Orograph.  Cendres Volcan.







- Altitude de l'aérodrome : 125 ft
- Code IATA : MGL


EDLN - Mönchengladbach

DERNIER METAR :
  • 240720Z 15003KT 100V260 CAVOK 17/11 Q1015

METARs EXPIRÉS :
  • 240650Z 14004KT CAVOK 15/10 Q1015
  • 240620Z 14003KT 110V180 CAVOK 15/10 Q1015
  • 240550Z 12004KT CAVOK 13/10 Q1015
  • 240520Z AUTO 12003KT 9999 // SCT071/// BKN091/// 11/09 Q1015
  • 240450Z AUTO 12004KT 9999 // SCT069/// BKN091/// 10/08 Q1015

TAF TAF EDLN
Valide du 24 à 07h jusqu'au 24 à 15h UTC


240650Z 2407/2415 14004KT CAVOK
BECMG 2407/2409 28006KT
Pas de NOTAMs connus pour ce terrain.



MET'MAP, la Météo Aéronautique d'un coup d'oeil ! - Copyright ORBIFLY Décembre 2007 - Disclaimer

ORBIFLY MET'MAP TEAM :

Programmation & Développement : Alexandra Zaïnal
Conception & Développement : Baudouin d'Aumeries
Co-Programmation & Développement : Marc-Olivier Méhu
Soutien technique & logistique : Manuel Goepfert

Contact : metmap@orbifly.com




SOURCES & CREDITS :

   NOAA